Time;durP1;ratioP1;P1;durP2;ratioP2;P2;SDS_P1;SDS_P2;PMS_P1;PMS_P2;Temp;Humidity;BMP_temperature;BMP_pressure;BME280_temperature;BME280_humidity;BME280_pressure;Samples;Min_cycle;Max_cycle;Signal;HPM_P1;HPM_P2
2021/12/23 00:04:59;;;;;;;12.75;6.50;;;3.90;94.70;;;;;;10408281;28;20076;-68
2021/12/23 00:10:06;;;;;;;13.32;7.10;;;3.90;94.70;;;;;;10410456;28;20492;-72
2021/12/23 00:15:16;;;;;;;12.93;6.90;;;3.90;94.70;;;;;;10402078;28;20045;-72
2021/12/23 00:25:18;;;;;;;14.35;6.78;;;3.90;94.60;;;;;;10409897;28;20044;-69
2021/12/23 00:30:18;;;;;;;10.98;6.45;;;3.90;94.60;;;;;;10409407;28;20117;-71
2021/12/23 00:35:19;;;;;;;15.85;7.22;;;3.90;94.60;;;;;;10409338;28;20506;-72
2021/12/23 00:40:20;;;;;;;11.35;6.53;;;3.90;94.60;;;;;;10408853;28;20025;-67
2021/12/23 00:45:21;;;;;;;14.80;6.57;;;3.90;94.60;;;;;;10408706;28;20171;-70
2021/12/23 00:50:22;;;;;;;13.75;6.82;;;3.90;94.60;;;;;;10408967;28;20436;-72
2021/12/23 00:55:23;;;;;;;14.35;7.55;;;3.90;94.60;;;;;;10406807;28;20412;-65
2021/12/23 01:00:23;;;;;;;15.38;6.85;;;3.90;94.60;;;;;;10400362;28;20480;-69
2021/12/23 01:05:25;;;;;;;13.85;6.90;;;3.90;94.60;;;;;;10408242;28;20033;-65
2021/12/23 01:10:27;;;;;;;13.35;7.28;;;3.90;94.60;;;;;;10389165;28;20438;-72
2021/12/23 01:20:36;;;;;;;13.57;6.53;;;3.90;94.60;;;;;;10406199;28;20040;-65
2021/12/23 01:25:39;;;;;;;14.35;7.75;;;3.90;94.60;;;;;;10408759;28;20079;-69
2021/12/23 01:30:40;;;;;;;16.33;7.07;;;3.90;94.60;;;;;;10404637;28;20021;-71
2021/12/23 01:35:44;;;;;;;11.15;6.53;;;3.90;94.60;;;;;;10390664;28;20033;-72
2021/12/23 01:40:46;;;;;;;14.38;7.03;;;3.90;94.60;;;;;;10405185;28;20017;-72
2021/12/23 01:45:49;;;;;;;12.43;6.22;;;3.90;94.60;;;;;;10406521;28;20044;-72
2021/12/23 01:50:49;;;;;;;13.82;7.05;;;3.90;94.60;;;;;;10406485;28;20020;-70
2021/12/23 01:55:50;;;;;;;13.32;6.95;;;3.90;94.60;;;;;;10406612;28;20372;-64
2021/12/23 02:00:52;;;;;;;14.38;7.30;;;3.90;94.60;;;;;;10401004;28;20044;-64
2021/12/23 02:05:53;;;;;;;15.00;7.35;;;3.90;94.60;;;;;;10406400;28;20514;-67
2021/12/23 02:10:55;;;;;;;12.85;6.70;;;4.20;94.60;;;;;;10405876;28;20026;-72
2021/12/23 02:15:55;;;;;;;12.35;6.65;;;3.90;94.50;;;;;;10402360;28;20142;-68
2021/12/23 02:20:57;;;;;;;14.85;7.40;;;3.90;94.50;;;;;;10404681;28;20119;-72
2021/12/23 02:25:58;;;;;;;13.38;7.00;;;3.90;94.50;;;;;;10405405;28;20542;-68
2021/12/23 02:30:59;;;;;;;15.52;6.80;;;3.90;94.50;;;;;;10403765;28;20028;-70
2021/12/23 02:36:00;;;;;;;15.85;7.32;;;3.90;94.50;;;;;;10405837;28;20026;-67
2021/12/23 02:41:01;;;;;;;13.30;6.97;;;3.90;94.50;;;;;;10404931;28;20357;-70
2021/12/23 02:46:02;;;;;;;14.07;6.53;;;4.00;94.60;;;;;;10403916;28;20034;-63
2021/12/23 02:51:07;;;;;;;14.02;7.50;;;3.90;94.60;;;;;;10403855;28;20045;-69
2021/12/23 02:56:10;;;;;;;13.45;7.05;;;3.90;94.60;;;;;;10403739;28;20112;-70
2021/12/23 03:01:13;;;;;;;14.98;7.38;;;3.90;94.60;;;;;;10397994;28;20519;-64
2021/12/23 03:06:18;;;;;;;14.95;6.72;;;3.90;94.60;;;;;;10403484;28;20033;-69
2021/12/23 03:11:21;;;;;;;16.70;7.97;;;3.90;94.60;;;;;;10398122;28;20036;-71
2021/12/23 03:16:34;;;;;;;14.45;7.18;;;4.00;94.70;;;;;;10401186;28;20045;-72
2021/12/23 03:21:35;;;;;;;13.70;6.72;;;3.90;94.60;;;;;;10401215;28;20057;-69
2021/12/23 03:26:36;;;;;;;11.52;6.75;;;3.90;94.60;;;;;;10401843;28;20040;-68
2021/12/23 03:31:37;;;;;;;12.48;7.07;;;4.00;94.60;;;;;;10401658;28;20395;-68
2021/12/23 03:36:38;;;;;;;13.07;7.05;;;4.00;94.60;;;;;;10410428;28;20041;-67
2021/12/23 03:41:39;;;;;;;14.85;7.55;;;4.00;94.60;;;;;;10412999;28;20022;-72
2021/12/23 03:46:40;;;;;;;17.17;7.63;;;4.00;94.60;;;;;;10410911;28;20107;-67
2021/12/23 03:51:41;;;;;;;14.10;7.25;;;4.00;94.60;;;;;;10411402;28;20037;-69
2021/12/23 03:56:44;;;;;;;16.90;7.90;;;4.00;94.60;;;;;;10406451;28;20166;-63
2021/12/23 04:01:45;;;;;;;13.73;7.55;;;4.30;94.60;;;;;;10407346;28;20057;-68
2021/12/23 04:06:45;;;;;;;16.40;7.80;;;4.00;94.60;;;;;;10410239;28;20120;-70
2021/12/23 04:11:46;;;;;;;14.02;7.57;;;4.00;94.60;;;;;;10402352;28;20033;-71
2021/12/23 04:16:47;;;;;;;18.52;8.43;;;4.00;94.60;;;;;;10410584;28;20037;-71
2021/12/23 04:21:48;;;;;;;17.52;7.95;;;4.00;94.50;;;;;;10408867;28;20041;-69
2021/12/23 04:26:48;;;;;;;16.58;8.07;;;3.90;94.50;;;;;;10409992;28;20033;-63
2021/12/23 04:31:49;;;;;;;13.35;7.28;;;4.00;94.60;;;;;;10409738;28;20107;-71
2021/12/23 04:36:50;;;;;;;13.70;7.38;;;4.00;94.60;;;;;;10409573;28;20165;-68
2021/12/23 04:41:51;;;;;;;15.15;7.93;;;4.00;94.60;;;;;;10409038;28;20045;-69
2021/12/23 04:46:51;;;;;;;18.00;8.00;;;4.40;94.70;;;;;;10408727;28;20030;-65
2021/12/23 04:51:52;;;;;;;15.70;8.65;;;4.00;94.60;;;;;;10409120;28;20508;-68
2021/12/23 04:56:53;;;;;;;15.48;8.20;;;4.00;94.60;;;;;;10402662;28;20066;-69
2021/12/23 05:01:54;;;;;;;18.45;7.75;;;4.00;94.60;;;;;;10404405;28;20026;-71
2021/12/23 05:06:54;;;;;;;16.40;7.95;;;4.00;94.60;;;;;;10406979;28;20036;-66
2021/12/23 05:11:55;;;;;;;17.50;8.25;;;4.00;94.60;;;;;;10399751;28;20025;-72
2021/12/23 05:16:56;;;;;;;16.48;8.23;;;4.10;94.60;;;;;;10407585;28;20040;-69
2021/12/23 05:21:57;;;;;;;15.82;8.20;;;4.00;94.60;;;;;;10406300;28;20047;-62
2021/12/23 05:26:57;;;;;;;18.75;8.80;;;4.00;94.60;;;;;;10407060;28;20018;-69
2021/12/23 05:31:58;;;;;;;16.33;8.00;;;4.00;94.60;;;;;;10407510;28;20029;-70
2021/12/23 05:36:59;;;;;;;20.33;8.27;;;4.00;94.60;;;;;;10407090;28;20135;-70
2021/12/23 05:42:00;;;;;;;16.80;8.25;;;4.10;94.60;;;;;;10407054;28;20040;-69
2021/12/23 05:47:00;;;;;;;17.70;8.50;;;4.00;94.60;;;;;;10406801;28;20025;-69
2021/12/23 05:52:02;;;;;;;17.77;8.70;;;4.00;94.60;;;;;;10406490;28;20025;-66
2021/12/23 05:57:03;;;;;;;15.23;7.82;;;4.00;94.60;;;;;;10405959;28;20049;-66
2021/12/23 06:02:05;;;;;;;15.65;7.72;;;4.00;94.60;;;;;;10405904;28;20025;-70
2021/12/23 06:07:06;;;;;;;15.43;7.95;;;4.10;94.60;;;;;;10405539;28;20061;-66
2021/12/23 06:12:07;;;;;;;17.98;9.43;;;4.10;94.60;;;;;;10396748;28;20044;-73
2021/12/23 06:17:08;;;;;;;14.27;8.20;;;4.10;94.60;;;;;;10405057;28;20128;-66
2021/12/23 06:22:09;;;;;;;17.67;9.15;;;4.10;94.60;;;;;;10403612;28;20017;-68
2021/12/23 06:27:10;;;;;;;23.15;8.43;;;4.10;94.60;;;;;;10405305;28;20030;-69
2021/12/23 06:32:11;;;;;;;17.63;8.23;;;4.10;94.60;;;;;;10404322;28;20045;-68
2021/12/23 06:37:12;;;;;;;18.10;9.73;;;4.10;94.60;;;;;;10403509;28;20049;-66
2021/12/23 06:42:12;;;;;;;17.38;8.02;;;4.10;94.60;;;;;;10402174;28;20021;-71
2021/12/23 06:47:13;;;;;;;17.70;8.68;;;4.10;94.60;;;;;;10403199;28;20042;-68
2021/12/23 06:52:14;;;;;;;18.63;9.27;;;3.80;94.50;;;;;;10403800;28;20117;-71
2021/12/23 06:57:15;;;;;;;16.33;8.77;;;4.10;94.60;;;;;;10395059;28;20045;-70
2021/12/23 07:02:17;;;;;;;19.75;10.15;;;4.30;94.60;;;;;;10403962;28;20235;-71
2021/12/23 07:07:29;;;;;;;19.13;9.05;;;4.10;94.60;;;;;;10402360;28;20348;-71
2021/12/23 07:12:30;;;;;;;18.75;8.82;;;4.10;94.60;;;;;;10394558;28;20390;-71
2021/12/23 07:17:30;;;;;;;21.23;8.82;;;4.10;94.60;;;;;;10404911;28;20108;-71
2021/12/23 07:22:31;;;;;;;16.33;8.43;;;4.10;94.60;;;;;;10403165;28;20025;-71
2021/12/23 07:27:32;;;;;;;19.83;9.00;;;4.30;94.60;;;;;;10403177;28;20624;-65
2021/12/23 07:32:33;;;;;;;19.65;9.02;;;4.10;94.60;;;;;;10402500;28;20597;-69
2021/12/23 07:37:35;;;;;;;16.33;8.30;;;4.10;94.60;;;;;;10402842;28;20361;-64
2021/12/23 07:42:38;;;;;;;21.10;9.70;;;4.10;94.60;;;;;;10402271;28;20025;-72
2021/12/23 07:47:39;;;;;;;18.23;9.25;;;4.10;94.60;;;;;;10415103;28;20060;-71
2021/12/23 07:52:39;;;;;;;22.67;10.73;;;4.10;94.60;;;;;;10402532;28;20032;-71
2021/12/23 07:57:41;;;;;;;20.35;9.65;;;4.10;94.60;;;;;;10395223;28;20045;-66
2021/12/23 08:02:43;;;;;;;18.77;8.90;;;4.10;94.60;;;;;;10401513;28;20121;-62
2021/12/23 08:07:43;;;;;;;19.98;9.57;;;4.70;94.80;;;;;;10401755;28;20045;-74
2021/12/23 08:12:44;;;;;;;19.35;9.38;;;4.10;94.60;;;;;;10395229;28;20037;-65
2021/12/23 08:17:45;;;;;;;23.63;9.40;;;4.10;94.60;;;;;;10401982;28;20084;-65
2021/12/23 08:22:46;;;;;;;23.20;9.93;;;4.10;94.60;;;;;;10408524;28;20021;-60
2021/12/23 08:27:46;;;;;;;22.55;9.98;;;4.10;94.60;;;;;;10409362;28;20022;-67
2021/12/23 08:32:49;;;;;;;24.02;10.68;;;4.10;94.60;;;;;;10409148;28;20095;-63
2021/12/23 08:37:50;;;;;;;19.10;10.48;;;4.10;94.60;;;;;;10410686;28;20056;-69
2021/12/23 08:42:51;;;;;;;22.98;10.48;;;4.10;94.60;;;;;;10420116;28;20434;-62
2021/12/23 08:47:56;;;;;;;25.08;11.73;;;4.40;94.70;;;;;;10407630;28;20628;-64
2021/12/23 08:52:58;;;;;;;25.90;10.88;;;4.10;94.70;;;;;;10406002;28;20037;-67
2021/12/23 08:58:03;;;;;;;27.25;11.70;;;4.10;94.70;;;;;;10372150;28;20519;-65
2021/12/23 09:03:07;;;;;;;25.10;11.60;;;4.10;94.70;;;;;;10376484;28;20511;-60
2021/12/23 09:08:09;;;;;;;30.52;12.70;;;4.10;94.70;;;;;;10372531;28;20022;-65
2021/12/23 09:13:10;;;;;;;29.60;12.02;;;4.50;94.80;;;;;;10382050;28;20119;-66
2021/12/23 09:18:11;;;;;;;31.17;12.82;;;4.10;94.70;;;;;;10375763;28;20724;-67
2021/12/23 09:23:12;;;;;;;24.98;12.15;;;4.20;94.70;;;;;;10377506;28;20033;-66
2021/12/23 09:28:26;;;;;;;30.20;12.32;;;4.20;94.70;;;;;;10377911;28;20485;-67
2021/12/23 09:33:27;;;;;;;26.95;11.60;;;4.20;94.70;;;;;;10399401;28;20029;-65
2021/12/23 09:38:27;;;;;;;27.40;12.05;;;4.20;94.70;;;;;;10408280;28;20022;-68
2021/12/23 09:43:30;;;;;;;28.70;13.00;;;4.30;94.90;;;;;;10406910;28;20029;-66
2021/12/23 09:48:33;;;;;;;24.05;12.25;;;4.30;94.80;;;;;;10407429;28;20017;-71
2021/12/23 09:53:36;;;;;;;28.17;12.52;;;4.50;94.90;;;;;;10406255;28;20049;-72
2021/12/23 09:58:36;;;;;;;31.00;13.32;;;4.30;94.90;;;;;;10399451;28;20100;-71
2021/12/23 10:03:38;;;;;;;29.58;12.38;;;4.30;94.80;;;;;;10406615;28;20128;-66
2021/12/23 10:08:40;;;;;;;28.42;11.52;;;4.40;95.00;;;;;;10394003;28;20052;-69
2021/12/23 10:40:34;;;;;;;34.78;13.07;;;4.50;95.10;;;;;;10405332;28;20056;-71
2021/12/23 10:45:43;;;;;;;27.35;12.88;;;4.50;95.10;;;;;;10404321;28;20061;-70
2021/12/23 10:50:48;;;;;;;31.85;13.27;;;4.50;95.10;;;;;;10404231;28;20108;-69
2021/12/23 11:01:23;;;;;;;29.90;12.30;;;4.50;95.10;;;;;;10387321;28;20100;-67
2021/12/23 11:06:33;;;;;;;26.33;11.95;;;4.50;95.10;;;;;;10412727;28;20061;-70
2021/12/23 11:12:08;;;;;;;29.20;12.55;;;4.50;95.10;;;;;;10405500;28;21490;-69
2021/12/23 11:48:52;;;;;;;28.25;12.95;;;4.70;95.30;;;;;;10399102;28;20124;-70
2021/12/23 11:53:53;;;;;;;34.00;13.00;;;4.70;95.30;;;;;;10403149;28;20154;-66
2021/12/23 11:58:57;;;;;;;34.17;13.02;;;4.70;95.30;;;;;;10403196;28;20537;-71
2021/12/23 12:04:01;;;;;;;32.47;13.25;;;4.60;95.30;;;;;;10409368;28;20036;-70
2021/12/23 12:09:19;;;;;;;29.70;12.10;;;4.60;95.60;;;;;;10410692;28;20390;-68
2021/12/23 12:14:41;;;;;;;31.23;12.95;;;4.60;95.40;;;;;;10410087;28;20042;-69
2021/12/23 12:19:57;;;;;;;31.17;12.38;;;4.60;95.70;;;;;;10401499;28;21607;-66
2021/12/23 12:24:57;;;;;;;30.35;12.77;;;4.60;96.00;;;;;;10377734;28;20029;-71
2021/12/23 12:30:10;;;;;;;33.25;13.00;;;4.60;95.90;;;;;;10395916;28;20029;-70
2021/12/23 12:35:14;;;;;;;33.50;13.65;;;4.60;95.90;;;;;;10415484;28;20057;-70
2021/12/23 12:40:14;;;;;;;34.00;13.48;;;4.70;95.80;;;;;;10402826;28;20045;-68
2021/12/23 12:45:26;;;;;;;35.15;13.75;;;4.70;95.80;;;;;;10402650;28;20030;-71
2021/12/23 12:50:28;;;;;;;34.88;13.50;;;4.60;95.80;;;;;;10405130;28;20124;-71
2021/12/23 12:55:29;;;;;;;32.08;13.77;;;4.70;95.80;;;;;;10414226;28;20040;-74
2021/12/23 13:00:40;;;;;;;28.45;13.20;;;4.70;95.80;;;;;;10412581;28;20081;-68
2021/12/23 13:05:48;;;;;;;30.92;12.77;;;4.70;95.80;;;;;;10421064;28;20040;-69
2021/12/23 13:10:50;;;;;;;35.77;13.40;;;4.70;95.80;;;;;;10415588;28;20017;-67
2021/12/23 13:15:57;;;;;;;30.38;13.00;;;4.70;95.80;;;;;;10409370;28;20300;-70
2021/12/23 13:21:05;;;;;;;32.13;12.50;;;4.70;95.80;;;;;;10399627;28;20120;-74
2021/12/23 13:26:15;;;;;;;34.03;13.10;;;4.70;95.80;;;;;;10407030;28;20127;-75
2021/12/23 13:31:29;;;;;;;32.05;12.25;;;4.70;95.80;;;;;;10407194;28;20025;-74
2021/12/23 13:36:44;;;;;;;31.60;13.50;;;4.70;95.80;;;;;;10406757;28;20044;-75
2021/12/23 13:41:48;;;;;;;33.28;13.35;;;4.60;95.80;;;;;;10406148;28;20480;-70
2021/12/23 13:46:59;;;;;;;31.67;13.48;;;4.60;95.80;;;;;;10406387;28;20029;-71
2021/12/23 13:52:00;;;;;;;33.60;13.30;;;4.70;95.80;;;;;;10405417;28;20018;-70
2021/12/23 13:57:07;;;;;;;32.97;13.32;;;4.70;95.80;;;;;;10397914;28;20034;-67
2021/12/23 14:02:13;;;;;;;31.10;13.30;;;4.70;95.80;;;;;;10405017;28;20045;-69
2021/12/23 14:07:27;;;;;;;31.88;12.70;;;4.70;95.80;;;;;;10405415;28;20022;-71
2021/12/23 14:12:51;;;;;;;30.02;12.57;;;4.70;95.80;;;;;;10404756;28;20467;-65
2021/12/23 14:18:01;;;;;;;30.10;13.02;;;4.80;96.10;;;;;;10404344;28;20095;-64
2021/12/23 14:23:12;;;;;;;23.70;10.68;;;4.80;95.90;;;;;;10397537;28;20024;-66
2021/12/23 14:28:22;;;;;;;27.73;11.50;;;5.20;97.10;;;;;;10393341;28;20028;-75
2021/12/23 14:33:27;;;;;;;29.25;11.77;;;5.80;96.20;;;;;;10404297;28;20095;-73
2021/12/23 14:38:42;;;;;;;28.52;11.50;;;5.60;95.70;;;;;;10402514;28;20033;-69
2021/12/23 14:44:01;;;;;;;28.45;12.45;;;5.40;96.10;;;;;;10399879;28;20128;-66
2021/12/23 14:54:12;;;;;;;28.55;12.73;;;5.20;96.40;;;;;;10380709;28;20037;-68
2021/12/23 14:59:20;;;;;;;30.50;11.75;;;5.20;96.50;;;;;;10367531;28;20056;-68
2021/12/23 15:04:21;;;;;;;29.13;11.85;;;5.10;96.60;;;;;;10369760;28;20116;-61
2021/12/23 15:09:22;;;;;;;31.52;11.50;;;5.10;96.60;;;;;;10369203;28;20377;-68
2021/12/23 15:14:23;;;;;;;27.38;11.50;;;5.00;96.60;;;;;;10397312;28;20411;-64
2021/12/23 15:19:39;;;;;;;29.73;13.07;;;5.00;96.70;;;;;;10396943;28;20029;-64
2021/12/23 15:24:45;;;;;;;26.98;11.27;;;5.00;96.70;;;;;;10400297;28;20029;-60
2021/12/23 15:29:47;;;;;;;26.67;11.70;;;5.00;96.70;;;;;;10398251;28;20026;-60
2021/12/23 15:35:00;;;;;;;25.98;11.30;;;5.00;96.70;;;;;;10401197;28;20053;-60
2021/12/23 15:40:07;;;;;;;29.90;12.45;;;5.00;96.70;;;;;;10400116;28;20025;-69
2021/12/23 15:45:08;;;;;;;32.78;11.43;;;4.90;96.70;;;;;;10395752;28;20037;-63
2021/12/23 15:50:10;;;;;;;27.02;11.77;;;4.90;96.70;;;;;;10400361;28;20114;-68
2021/12/23 15:55:10;;;;;;;27.98;12.05;;;4.90;96.70;;;;;;10400443;28;20128;-63
2021/12/23 16:00:12;;;;;;;25.40;11.13;;;4.90;96.70;;;;;;10397059;28;20119;-68
2021/12/23 16:10:17;;;;;;;27.40;11.27;;;4.90;96.70;;;;;;10399549;28;20039;-67
2021/12/23 16:15:19;;;;;;;28.25;12.55;;;5.00;96.90;;;;;;10393049;28;20251;-67
2021/12/23 16:20:22;;;;;;;32.90;12.75;;;5.00;96.80;;;;;;10391904;28;20033;-68
2021/12/23 16:25:23;;;;;;;28.45;11.82;;;5.00;96.80;;;;;;10400022;28;20025;-72
2021/12/23 16:30:25;;;;;;;29.98;11.55;;;5.00;96.80;;;;;;10399256;28;20090;-72
2021/12/23 16:35:29;;;;;;;28.83;12.00;;;5.00;96.80;;;;;;10400243;28;20044;-73
2021/12/23 16:40:33;;;;;;;28.95;11.77;;;5.20;96.80;;;;;;10400045;28;20038;-62
2021/12/23 16:45:35;;;;;;;29.95;12.65;;;5.20;96.80;;;;;;10405778;28;20018;-71
2021/12/23 16:50:36;;;;;;;33.42;13.45;;;5.10;96.90;;;;;;10407133;28;20036;-71
2021/12/23 17:00:42;;;;;;;36.08;14.20;;;5.10;97.10;;;;;;10400504;28;20499;-61
2021/12/23 17:05:45;;;;;;;36.47;13.73;;;5.20;97.30;;;;;;10406669;28;20482;-71
2021/12/23 17:10:50;;;;;;;34.72;13.13;;;5.10;97.30;;;;;;10406115;28;20399;-71
2021/12/23 17:15:51;;;;;;;28.50;12.25;;;5.10;97.30;;;;;;10406296;28;20037;-70
2021/12/23 17:25:53;;;;;;;36.53;12.85;;;5.10;97.30;;;;;;10405141;28;20036;-75
2021/12/23 17:30:55;;;;;;;38.25;12.15;;;5.10;97.30;;;;;;10405975;28;20068;-65
2021/12/23 17:35:56;;;;;;;38.88;12.75;;;5.20;98.00;;;;;;10405707;28;20479;-74
2021/12/23 17:40:58;;;;;;;33.55;13.25;;;5.50;98.40;;;;;;10378398;28;20431;-70
2021/12/23 17:45:59;;;;;;;45.28;16.20;;;5.70;98.10;;;;;;10388431;28;20041;-66
2021/12/23 17:51:01;;;;;;;35.80;13.70;;;5.60;97.80;;;;;;10402856;28;20545;-74
2021/12/23 17:56:02;;;;;;;37.08;13.55;;;5.70;98.00;;;;;;10404411;28;20418;-62
2021/12/23 18:01:06;;;;;;;38.30;12.95;;;5.50;98.00;;;;;;10395476;28;20129;-67
2021/12/23 18:06:09;;;;;;;37.40;13.13;;;5.50;98.00;;;;;;10404852;28;20021;-68
2021/12/23 18:11:09;;;;;;;35.55;13.60;;;4.70;97.90;;;;;;10401736;28;20045;-73
2021/12/23 18:16:10;;;;;;;31.08;12.88;;;5.40;98.00;;;;;;10402899;28;20466;-66
2021/12/23 18:21:11;;;;;;;36.72;13.88;;;5.40;98.30;;;;;;10395433;28;20034;-74
2021/12/23 18:26:12;;;;;;;33.22;12.50;;;5.50;98.10;;;;;;10403049;28;20132;-71
2021/12/23 18:31:13;;;;;;;35.45;13.73;;;5.60;98.70;;;;;;10405200;28;20467;-72
2021/12/23 18:36:22;;;;;;;32.40;11.77;;;5.90;98.60;;;;;;10397117;28;20091;-66
2021/12/23 18:41:30;;;;;;;32.58;12.63;;;5.90;98.20;;;;;;10404240;28;20029;-61
2021/12/23 18:46:31;;;;;;;38.92;13.90;;;5.90;98.20;;;;;;10295516;28;20025;-74
2021/12/23 18:51:34;;;;;;;32.55;11.23;;;5.80;98.20;;;;;;10414119;28;20377;-70
2021/12/23 18:56:35;;;;;;;29.25;11.38;;;5.80;98.50;;;;;;10393541;28;20116;-73
2021/12/23 19:01:36;;;;;;;29.95;11.27;;;5.80;98.40;;;;;;10380052;28;20112;-69
2021/12/23 19:06:43;;;;;;;30.10;12.20;;;5.80;98.40;;;;;;10392619;28;20400;-69
2021/12/23 19:11:43;;;;;;;32.47;13.70;;;5.80;98.50;;;;;;10397055;28;20058;-63
2021/12/23 19:16:45;;;;;;;33.63;11.98;;;5.70;98.50;;;;;;10385825;28;20140;-71
2021/12/23 19:21:45;;;;;;;30.73;11.38;;;5.70;98.50;;;;;;10390869;28;20030;-67
2021/12/23 19:26:46;;;;;;;36.13;12.38;;;5.70;98.50;;;;;;10396819;28;20033;-66
2021/12/23 19:31:47;;;;;;;29.02;11.60;;;5.70;98.60;;;;;;10383280;28;20075;-64
2021/12/23 19:36:48;;;;;;;36.97;12.98;;;5.70;98.50;;;;;;10408838;28;20045;-75
2021/12/23 19:41:48;;;;;;;31.65;12.27;;;5.70;98.50;;;;;;10397827;28;20026;-74
2021/12/23 19:46:49;;;;;;;27.30;12.32;;;5.70;98.50;;;;;;10380722;28;20053;-67
2021/12/23 19:51:52;;;;;;;33.15;11.93;;;5.90;98.60;;;;;;10378079;28;20026;-75
2021/12/23 19:56:53;;;;;;;28.80;10.98;;;5.60;98.50;;;;;;10372406;28;20124;-66
2021/12/23 20:01:55;;;;;;;32.15;12.57;;;5.70;98.50;;;;;;10380080;28;20465;-64
2021/12/23 20:06:55;;;;;;;28.33;11.95;;;5.70;98.50;;;;;;10375352;28;20045;-61
2021/12/23 20:11:56;;;;;;;24.80;11.05;;;5.70;98.50;;;;;;10376352;28;20029;-68
2021/12/23 20:16:57;;;;;;;26.58;12.20;;;5.70;98.50;;;;;;10382264;28;20117;-58
2021/12/23 20:21:58;;;;;;;29.45;11.73;;;5.70;98.50;;;;;;10393708;28;20384;-61
2021/12/23 20:26:58;;;;;;;31.45;12.95;;;5.70;98.50;;;;;;10383340;28;20104;-60
2021/12/23 20:32:02;;;;;;;27.65;11.80;;;5.70;98.50;;;;;;10384320;28;20899;-60
2021/12/23 20:37:04;;;;;;;31.77;11.70;;;5.80;98.50;;;;;;10386044;28;20487;-62
2021/12/23 20:42:05;;;;;;;26.77;11.95;;;5.70;98.50;;;;;;10389858;28;20056;-72
2021/12/23 20:47:06;;;;;;;28.70;11.68;;;5.70;98.50;;;;;;10386891;28;20041;-71
2021/12/23 20:52:08;;;;;;;29.23;11.35;;;5.70;98.50;;;;;;10372576;28;20443;-74
2021/12/23 20:57:09;;;;;;;24.05;11.18;;;5.70;98.50;;;;;;10375209;28;20037;-74
2021/12/23 21:02:11;;;;;;;24.73;11.05;;;5.70;98.50;;;;;;10389112;28;20136;-71
2021/12/23 21:07:18;;;;;;;23.42;11.48;;;5.80;98.50;;;;;;10403411;28;20038;-76
2021/12/23 21:12:20;;;;;;;26.83;11.10;;;5.80;98.50;;;;;;10388864;28;20030;-75
2021/12/23 21:17:23;;;;;;;25.67;10.88;;;5.70;98.50;;;;;;10398082;28;20099;-73
2021/12/23 21:22:24;;;;;;;26.42;10.63;;;5.80;98.50;;;;;;10404261;28;20025;-71
2021/12/23 21:27:24;;;;;;;23.23;10.63;;;5.80;98.50;;;;;;10409799;28;20021;-75
2021/12/23 21:32:25;;;;;;;21.75;10.65;;;5.80;98.50;;;;;;10394144;28;20045;-75
2021/12/23 21:37:26;;;;;;;25.48;11.00;;;5.80;98.50;;;;;;10399192;28;20025;-75
2021/12/23 21:42:28;;;;;;;29.08;10.90;;;5.80;98.50;;;;;;10388224;28;20017;-68
2021/12/23 21:47:29;;;;;;;25.65;10.68;;;5.80;98.50;;;;;;10393287;28;20129;-68
2021/12/23 21:52:31;;;;;;;27.48;10.30;;;5.80;98.50;;;;;;10376369;28;20030;-69
2021/12/23 21:57:32;;;;;;;26.73;11.50;;;5.80;98.50;;;;;;10381332;28;20404;-74
2021/12/23 22:02:33;;;;;;;23.83;10.60;;;5.90;98.50;;;;;;10376882;28;20115;-72
2021/12/23 22:07:34;;;;;;;24.38;9.90;;;5.90;98.50;;;;;;10372378;28;20025;-70
2021/12/23 22:12:35;;;;;;;24.73;11.00;;;5.90;98.60;;;;;;10375443;28;20115;-69
2021/12/23 22:17:36;;;;;;;23.05;9.98;;;5.90;98.60;;;;;;10371733;28;20125;-66
2021/12/23 22:22:37;;;;;;;22.00;10.52;;;5.90;98.60;;;;;;10380650;28;20032;-72
2021/12/23 22:27:38;;;;;;;27.00;10.65;;;6.00;98.60;;;;;;10377662;28;20041;-71
2021/12/23 22:32:39;;;;;;;27.50;10.57;;;6.00;98.60;;;;;;10379586;28;20033;-69
2021/12/23 22:37:40;;;;;;;27.60;10.43;;;6.00;98.60;;;;;;10384916;28;20038;-75
2021/12/23 22:42:41;;;;;;;22.30;10.60;;;6.00;98.60;;;;;;10399702;28;20030;-74
2021/12/23 22:47:42;;;;;;;24.83;10.52;;;6.00;98.60;;;;;;10395642;28;20874;-74
2021/12/23 22:52:43;;;;;;;21.98;9.38;;;6.00;98.60;;;;;;10393331;28;20029;-75
2021/12/23 22:57:47;;;;;;;18.88;8.68;;;6.00;98.60;;;;;;10401748;28;20046;-74
2021/12/23 23:02:48;;;;;;;23.80;9.95;;;6.00;98.50;;;;;;10391111;28;20072;-74
2021/12/23 23:07:48;;;;;;;22.38;10.02;;;6.00;98.50;;;;;;10391337;28;20113;-72
2021/12/23 23:12:53;;;;;;;27.08;10.80;;;6.00;98.50;;;;;;10403652;28;20037;-74
2021/12/23 23:17:54;;;;;;;23.00;10.02;;;6.10;98.60;;;;;;10395339;28;20519;-71
2021/12/23 23:22:54;;;;;;;21.88;10.13;;;6.10;98.60;;;;;;10391404;28;20022;-71
2021/12/23 23:28:13;;;;;;;24.45;9.88;;;6.10;98.60;;;;;;10403327;28;20037;-71
2021/12/23 23:43:36;;;;;;;21.33;9.75;;;6.20;98.60;;;;;;10403151;28;20021;-75
2021/12/23 23:48:38;;;;;;;20.92;9.20;;;6.20;98.60;;;;;;10401955;28;20388;-74
2021/12/23 23:53:45;;;;;;;19.60;8.70;;;6.20;98.60;;;;;;10410925;28;20377;-72
2021/12/23 23:58:47;;;;;;;22.48;9.50;;;6.40;98.60;;;;;;10410599;28;20227;-75
